Time;durP1;ratioP1;P1;durP2;ratioP2;P2;SDS_P1;SDS_P2;PMS_P1;PMS_P2;Temp;Humidity;BMP_temperature;BMP_pressure;BME280_temperature;BME280_humidity;BME280_pressure;Samples;Min_cycle;Max_cycle;Signal;HPM_P1;HPM_P2
2021/12/18 00:02:38;;;;;;;16.40;6.97;;;;;;;;;;8420349;28;20066;-76
2021/12/18 00:06:43;;;;;;;14.77;6.28;;;;;;;;;;8420856;28;20067;-75
2021/12/18 00:10:46;;;;;;;17.25;7.45;;;;;;;;;;8420981;28;20043;-75
2021/12/18 00:14:50;;;;;;;19.55;7.68;;;;;;;;;;8421100;28;20225;-75
2021/12/18 00:18:55;;;;;;;20.25;7.35;;;;;;;;;;8419984;28;20041;-76
2021/12/18 00:23:00;;;;;;;15.52;7.40;;;;;;;;;;8402482;28;20066;-76
2021/12/18 00:27:03;;;;;;;20.52;8.32;;;;;;;;;;8419590;28;20040;-75
2021/12/18 00:31:07;;;;;;;24.27;7.53;;;;;;;;;;8419155;28;20040;-75
2021/12/18 00:35:10;;;;;;;19.48;8.60;;;;;;;;;;8418393;28;20047;-75
2021/12/18 00:39:15;;;;;;;18.70;6.10;;;;;;;;;;8419440;28;20045;-75
2021/12/18 00:43:25;;;;;;;20.40;7.63;;;;;;;;;;8419624;28;20103;-75
2021/12/18 00:47:28;;;;;;;20.67;8.20;;;;;;;;;;8417888;28;20060;-75
2021/12/18 00:51:31;;;;;;;18.92;7.88;;;;;;;;;;8417752;28;20041;-75
2021/12/18 00:55:37;;;;;;;20.05;7.82;;;;;;;;;;8416674;28;20041;-75
2021/12/18 00:59:40;;;;;;;15.45;7.63;;;;;;;;;;8417324;28;20106;-74
2021/12/18 01:03:45;;;;;;;16.25;6.72;;;;;;;;;;8417202;28;20051;-75
2021/12/18 01:07:48;;;;;;;16.63;7.60;;;;;;;;;;8416966;28;20199;-75
2021/12/18 01:11:53;;;;;;;13.63;6.68;;;;;;;;;;8416848;28;20055;-75
2021/12/18 01:16:05;;;;;;;19.70;7.22;;;;;;;;;;8388898;28;20049;-74
2021/12/18 01:24:29;;;;;;;17.73;7.47;;;;;;;;;;8407628;28;20040;-75
2021/12/18 01:28:34;;;;;;;17.58;7.20;;;;;;;;;;8381367;28;20276;-75
2021/12/18 01:32:37;;;;;;;21.33;7.63;;;;;;;;;;8394782;28;20098;-75
2021/12/18 01:36:41;;;;;;;21.05;6.55;;;;;;;;;;8396654;28;20211;-75
2021/12/18 01:40:44;;;;;;;23.58;6.80;;;;;;;;;;8403789;28;20256;-75
2021/12/18 01:45:06;;;;;;;17.88;7.00;;;;;;;;;;8398910;28;20238;-75
2021/12/18 01:53:29;;;;;;;14.15;6.88;;;;;;;;;;8371148;28;20045;-75
2021/12/18 01:57:32;;;;;;;16.95;6.93;;;;;;;;;;8412247;28;20099;-76
2021/12/18 02:01:37;;;;;;;17.63;6.85;;;;;;;;;;8385518;28;20276;-75
2021/12/18 02:05:40;;;;;;;19.42;7.40;;;;;;;;;;8390600;28;20107;-76
2021/12/18 02:09:59;;;;;;;17.52;6.55;;;;;;;;;;8393343;28;20337;-75
2021/12/18 02:14:19;;;;;;;13.98;6.18;;;;;;;;;;8410092;28;20310;-75
2021/12/18 02:22:46;;;;;;;19.80;7.20;;;;;;;;;;8414731;28;20045;-74
2021/12/18 02:26:49;;;;;;;14.90;6.53;;;;;;;;;;8363711;28;20273;-74
2021/12/18 02:30:54;;;;;;;15.23;5.32;;;;;;;;;;8382255;28;20303;-75
2021/12/18 02:35:03;;;;;;;16.05;7.60;;;;;;;;;;8395445;28;20264;-75
2021/12/18 02:39:20;;;;;;;18.75;6.72;;;;;;;;;;8415410;28;20048;-75
2021/12/18 02:43:26;;;;;;;16.55;6.43;;;;;;;;;;8397098;28;20052;-75
2021/12/18 02:47:29;;;;;;;21.90;7.63;;;;;;;;;;8414613;28;20071;-75
2021/12/18 02:51:32;;;;;;;16.25;6.35;;;;;;;;;;8415094;28;20104;-75
2021/12/18 02:55:37;;;;;;;14.07;6.50;;;;;;;;;;8396493;28;20203;-75
2021/12/18 02:59:45;;;;;;;17.67;6.80;;;;;;;;;;8414718;28;20045;-75
2021/12/18 03:03:49;;;;;;;18.00;7.35;;;;;;;;;;8430427;28;20110;-75
2021/12/18 03:08:00;;;;;;;14.70;6.97;;;;;;;;;;8396517;28;20060;-75
2021/12/18 03:25:17;;;;;;;19.88;8.30;;;;;;;;;;8370173;28;20056;-74
2021/12/18 03:29:22;;;;;;;20.80;7.15;;;;;;;;;;8413834;28;20040;-74
2021/12/18 03:33:27;;;;;;;24.67;8.40;;;;;;;;;;8420560;28;20060;-74
2021/12/18 03:37:30;;;;;;;18.23;7.63;;;;;;;;;;8420086;28;20207;-75
2021/12/18 03:41:34;;;;;;;21.05;8.57;;;;;;;;;;8419749;28;20103;-75
2021/12/18 03:45:38;;;;;;;18.83;7.78;;;;;;;;;;8419358;28;20326;-75
2021/12/18 03:49:42;;;;;;;17.17;7.45;;;;;;;;;;8419942;28;20040;-74
2021/12/18 03:53:45;;;;;;;21.50;7.22;;;;;;;;;;8419974;28;20103;-75
2021/12/18 03:57:48;;;;;;;15.32;7.10;;;;;;;;;;8402138;28;20108;-74
2021/12/18 04:01:53;;;;;;;14.88;7.10;;;;;;;;;;8419981;28;20350;-76
2021/12/18 04:05:57;;;;;;;13.00;6.97;;;;;;;;;;8419743;28;20222;-76
2021/12/18 04:10:00;;;;;;;16.70;6.65;;;;;;;;;;8401837;28;20054;-76
2021/12/18 04:14:04;;;;;;;14.85;6.57;;;;;;;;;;8400815;28;20071;-76
2021/12/18 04:18:09;;;;;;;18.50;7.65;;;;;;;;;;8419082;28;20040;-77
2021/12/18 04:22:13;;;;;;;24.42;7.32;;;;;;;;;;8419315;28;20058;-76
2021/12/18 04:26:16;;;;;;;15.10;7.43;;;;;;;;;;8418618;28;20047;-75
2021/12/18 04:30:20;;;;;;;18.77;7.18;;;;;;;;;;8419560;28;20201;-75
2021/12/18 04:34:25;;;;;;;13.05;6.35;;;;;;;;;;8419780;28;20038;-75
2021/12/18 04:38:28;;;;;;;14.57;6.55;;;;;;;;;;8419646;28;20373;-74
2021/12/18 04:42:32;;;;;;;15.13;6.95;;;;;;;;;;8417641;28;20048;-74
2021/12/18 04:46:35;;;;;;;14.75;7.90;;;;;;;;;;8417545;28;20060;-74
2021/12/18 04:50:40;;;;;;;18.50;6.63;;;;;;;;;;8417584;28;20040;-74
2021/12/18 04:54:45;;;;;;;14.73;6.80;;;;;;;;;;8418046;28;20296;-74
2021/12/18 04:58:48;;;;;;;14.00;6.88;;;;;;;;;;8417264;28;20032;-75
2021/12/18 05:02:54;;;;;;;22.60;7.32;;;;;;;;;;8417618;28;20107;-76
2021/12/18 05:06:59;;;;;;;16.15;5.93;;;;;;;;;;8417149;28;20260;-77
2021/12/18 05:11:03;;;;;;;17.80;5.85;;;;;;;;;;8416948;28;20052;-76
2021/12/18 05:15:07;;;;;;;14.07;5.43;;;;;;;;;;8416615;28;20040;-76
2021/12/18 05:19:13;;;;;;;9.70;5.50;;;;;;;;;;8417203;28;20278;-77
2021/12/18 05:23:17;;;;;;;10.68;5.00;;;;;;;;;;8399144;28;20052;-77
2021/12/18 05:27:21;;;;;;;10.10;4.95;;;;;;;;;;8417897;28;20347;-76
2021/12/18 05:31:24;;;;;;;9.85;4.80;;;;;;;;;;8417429;28;20056;-75
2021/12/18 05:35:30;;;;;;;8.10;4.60;;;;;;;;;;8416994;28;20138;-75
2021/12/18 05:39:34;;;;;;;11.73;4.82;;;;;;;;;;8416723;28;20040;-75
2021/12/18 05:43:38;;;;;;;12.75;5.35;;;;;;;;;;8398939;28;20263;-76
2021/12/18 05:47:43;;;;;;;12.93;5.53;;;;;;;;;;8416225;28;20342;-76
2021/12/18 05:51:46;;;;;;;14.65;5.07;;;;;;;;;;8416751;28;20369;-76
2021/12/18 05:55:51;;;;;;;18.40;7.03;;;;;;;;;;8416517;28;20154;-76
2021/12/18 05:59:54;;;;;;;17.13;8.48;;;;;;;;;;8415950;28;20052;-76
2021/12/18 06:03:58;;;;;;;22.65;10.18;;;;;;;;;;8416454;28;20156;-75
2021/12/18 06:08:03;;;;;;;19.38;10.60;;;;;;;;;;8416289;28;20044;-75
2021/12/18 06:12:10;;;;;;;31.65;11.55;;;;;;;;;;8415756;28;20054;-76
2021/12/18 06:16:14;;;;;;;25.90;10.13;;;;;;;;;;8397560;28;20045;-76
2021/12/18 06:20:17;;;;;;;24.85;10.55;;;;;;;;;;8415233;28;20037;-75
2021/12/18 06:24:22;;;;;;;28.75;10.88;;;;;;;;;;8397533;28;20048;-76
2021/12/18 06:28:27;;;;;;;21.77;8.38;;;;;;;;;;8414845;28;20036;-75
2021/12/18 06:32:30;;;;;;;32.33;11.32;;;;;;;;;;8383067;28;20100;-75
2021/12/18 06:36:33;;;;;;;17.58;9.23;;;;;;;;;;8382372;28;20041;-75
2021/12/18 06:40:37;;;;;;;17.70;9.80;;;;;;;;;;8382452;28;20200;-75
2021/12/18 06:44:41;;;;;;;23.75;9.43;;;;;;;;;;8387888;28;21119;-74
2021/12/18 06:48:45;;;;;;;19.92;8.70;;;;;;;;;;8400992;28;20055;-75
2021/12/18 06:52:48;;;;;;;19.38;9.20;;;;;;;;;;8403809;28;20068;-75
2021/12/18 06:56:51;;;;;;;19.75;9.32;;;;;;;;;;8421851;28;20044;-75
2021/12/18 07:00:56;;;;;;;29.63;12.00;;;;;;;;;;8421422;28;20044;-75
2021/12/18 07:04:59;;;;;;;21.67;10.55;;;;;;;;;;8422145;28;20048;-75
2021/12/18 07:09:03;;;;;;;25.13;10.63;;;;;;;;;;8421363;28;20094;-75
2021/12/18 07:13:07;;;;;;;25.52;10.95;;;;;;;;;;8404116;28;20053;-75
2021/12/18 07:17:12;;;;;;;21.00;10.70;;;;;;;;;;8403420;28;20154;-75
2021/12/18 07:21:15;;;;;;;21.17;10.60;;;;;;;;;;8403031;28;20059;-74
2021/12/18 07:25:19;;;;;;;22.30;10.40;;;;;;;;;;8421122;28;20043;-75
2021/12/18 07:29:22;;;;;;;20.05;9.70;;;;;;;;;;8420555;28;20044;-75
2021/12/18 07:33:27;;;;;;;18.08;9.75;;;;;;;;;;8421063;28;20044;-75
2021/12/18 07:37:31;;;;;;;16.98;8.70;;;;;;;;;;8402139;28;20357;-75
2021/12/18 07:41:35;;;;;;;18.48;9.07;;;;;;;;;;8419721;28;20040;-75
2021/12/18 07:45:38;;;;;;;22.33;9.10;;;;;;;;;;8419900;28;20060;-75
2021/12/18 07:49:43;;;;;;;20.25;9.27;;;;;;;;;;8421429;28;20044;-75
2021/12/18 07:53:47;;;;;;;21.25;10.35;;;;;;;;;;8424174;28;20238;-74
2021/12/18 07:57:53;;;;;;;19.73;9.18;;;;;;;;;;8425735;28;20041;-75
2021/12/18 08:01:56;;;;;;;15.82;6.80;;;;;;;;;;8424099;28;20093;-77
2021/12/18 08:06:01;;;;;;;16.17;7.53;;;;;;;;;;8423822;28;20247;-75
2021/12/18 08:10:07;;;;;;;16.83;7.70;;;;;;;;;;8421337;28;20335;-77
2021/12/18 08:14:10;;;;;;;16.27;7.70;;;;;;;;;;8421920;28;20040;-77
2021/12/18 08:18:14;;;;;;;16.58;6.82;;;;;;;;;;8422908;28;20044;-75
2021/12/18 08:22:19;;;;;;;18.08;8.82;;;;;;;;;;8437406;28;20086;-77
2021/12/18 08:26:27;;;;;;;19.98;8.13;;;;;;;;;;8422823;28;20051;-77
2021/12/18 08:30:35;;;;;;;17.77;8.73;;;;;;;;;;8422367;28;20041;-77
2021/12/18 08:34:39;;;;;;;18.45;8.55;;;;;;;;;;8421689;28;20040;-80
2021/12/18 08:38:46;;;;;;;17.38;8.52;;;;;;;;;;8403281;28;20048;-76
2021/12/18 08:42:50;;;;;;;19.08;9.45;;;;;;;;;;8402518;28;20044;-76
2021/12/18 08:46:58;;;;;;;16.75;6.63;;;;;;;;;;8420235;28;20071;-77
2021/12/18 08:51:01;;;;;;;17.30;7.78;;;;;;;;;;8402250;28;20045;-76
2021/12/18 08:55:07;;;;;;;18.70;9.07;;;;;;;;;;8420629;28;20041;-77
2021/12/18 08:59:12;;;;;;;23.15;9.98;;;;;;;;;;8419654;28;20044;-75
2021/12/18 09:03:16;;;;;;;16.55;7.85;;;;;;;;;;8417339;28;20322;-80
2021/12/18 09:07:25;;;;;;;17.88;7.57;;;;;;;;;;8422360;28;20082;-79
2021/12/18 09:11:30;;;;;;;20.15;6.32;;;;;;;;;;8437698;28;20040;-80
2021/12/18 09:15:34;;;;;;;14.70;7.10;;;;;;;;;;8422719;28;20075;-78
2021/12/18 09:19:41;;;;;;;24.60;8.73;;;;;;;;;;8425316;28;20047;-78
2021/12/18 09:23:49;;;;;;;24.10;9.40;;;;;;;;;;8426853;28;20090;-81
2021/12/18 09:27:57;;;;;;;22.80;9.18;;;;;;;;;;8426324;28;20325;-81
2021/12/18 09:32:00;;;;;;;16.65;9.02;;;;;;;;;;8406909;28;20045;-81
2021/12/18 09:36:04;;;;;;;24.20;11.55;;;;;;;;;;8423448;28;20047;-81
2021/12/18 09:40:10;;;;;;;17.52;9.00;;;;;;;;;;8423799;28;20040;-80
2021/12/18 09:44:15;;;;;;;21.50;9.38;;;;;;;;;;8424725;28;20044;-79
2021/12/18 09:48:20;;;;;;;23.35;10.38;;;;;;;;;;8407127;28;20053;-81
2021/12/18 09:52:25;;;;;;;21.63;9.90;;;;;;;;;;8425704;28;20036;-79
2021/12/18 09:56:29;;;;;;;25.85;11.15;;;;;;;;;;8424396;28;20051;-81
2021/12/18 10:00:34;;;;;;;24.98;9.98;;;;;;;;;;8423127;28;20318;-79
2021/12/18 10:04:39;;;;;;;25.77;10.80;;;;;;;;;;8424794;28;20049;-80
2021/12/18 10:08:42;;;;;;;27.42;11.45;;;;;;;;;;8426397;28;20044;-78
2021/12/18 10:12:45;;;;;;;34.65;12.57;;;;;;;;;;8404456;28;20029;-76
2021/12/18 10:16:53;;;;;;;22.55;10.55;;;;;;;;;;8420809;28;20040;-79
2021/12/18 10:21:10;;;;;;;27.20;11.45;;;;;;;;;;8420308;28;20051;-77
2021/12/18 10:25:14;;;;;;;22.15;10.25;;;;;;;;;;8418238;28;20052;-76
2021/12/18 10:29:29;;;;;;;25.88;12.18;;;;;;;;;;8420510;28;20044;-77
2021/12/18 10:33:35;;;;;;;23.40;11.18;;;;;;;;;;8419591;28;20117;-82
2021/12/18 10:37:39;;;;;;;30.98;13.13;;;;;;;;;;8420757;28;20036;-75
2021/12/18 10:41:46;;;;;;;25.60;11.57;;;;;;;;;;8418031;28;20044;-76
2021/12/18 10:45:52;;;;;;;25.67;12.07;;;;;;;;;;8411541;28;20049;-76
2021/12/18 10:49:58;;;;;;;31.90;12.23;;;;;;;;;;8418272;28;20041;-82
2021/12/18 10:54:04;;;;;;;23.23;10.07;;;;;;;;;;8420882;28;20071;-78
2021/12/18 10:58:13;;;;;;;24.40;11.30;;;;;;;;;;8419356;28;20326;-78
2021/12/18 11:02:19;;;;;;;24.80;11.57;;;;;;;;;;8411061;28;20044;-81
2021/12/18 11:06:29;;;;;;;24.15;11.07;;;;;;;;;;8422338;28;20040;-78
2021/12/18 11:10:42;;;;;;;30.67;13.55;;;;;;;;;;8421444;28;20112;-82
2021/12/18 11:14:47;;;;;;;23.33;12.13;;;;;;;;;;8418035;28;20045;-79
2021/12/18 11:18:52;;;;;;;26.05;11.20;;;;;;;;;;8419457;28;20044;-80
2021/12/18 11:22:59;;;;;;;26.98;10.90;;;;;;;;;;8420798;28;20040;-79
2021/12/18 11:27:05;;;;;;;26.65;11.02;;;;;;;;;;8420051;28;20070;-80
2021/12/18 11:31:09;;;;;;;28.90;11.40;;;;;;;;;;8420485;28;20044;-78
2021/12/18 11:35:16;;;;;;;26.88;10.68;;;;;;;;;;8403627;28;20274;-76
2021/12/18 11:39:25;;;;;;;31.70;13.73;;;;;;;;;;8426330;28;20040;-79
2021/12/18 11:43:35;;;;;;;35.13;12.73;;;;;;;;;;8428865;28;20332;-81
2021/12/18 11:47:40;;;;;;;29.48;13.55;;;;;;;;;;8427213;28;20331;-80
2021/12/18 11:51:59;;;;;;;33.55;13.63;;;;;;;;;;8427136;28;20237;-82
2021/12/18 11:56:04;;;;;;;34.47;15.02;;;;;;;;;;8426227;28;20275;-77
2021/12/18 12:00:33;;;;;;;39.88;15.05;;;;;;;;;;8421181;28;20037;-83
2021/12/18 12:05:02;;;;;;;30.95;13.27;;;;;;;;;;8408424;28;20107;-83
2021/12/18 12:09:27;;;;;;;40.65;16.40;;;;;;;;;;8385377;28;20146;-82
2021/12/18 12:13:54;;;;;;;45.20;16.58;;;;;;;;;;8375317;28;20041;-78
2021/12/18 12:18:03;;;;;;;48.92;17.80;;;;;;;;;;8390530;28;20123;-82
2021/12/18 12:22:09;;;;;;;48.30;16.35;;;;;;;;;;8384589;28;20047;-82
2021/12/18 12:26:24;;;;;;;44.67;17.15;;;;;;;;;;8371357;28;20069;-84
2021/12/18 12:30:36;;;;;;;52.50;20.10;;;;;;;;;;8401336;28;20044;-80
2021/12/18 12:34:40;;;;;;;55.63;21.08;;;;;;;;;;8406637;28;20051;-84
2021/12/18 12:39:00;;;;;;;53.50;21.98;;;;;;;;;;8416561;28;20040;-86
2021/12/18 12:43:21;;;;;;;53.92;18.80;;;;;;;;;;8388952;28;20199;-84
2021/12/18 12:47:32;;;;;;;58.22;20.33;;;;;;;;;;8389937;28;20119;-82
2021/12/18 12:52:05;;;;;;;50.25;18.42;;;;;;;;;;8371835;28;20045;-79
2021/12/18 12:56:18;;;;;;;46.75;17.52;;;;;;;;;;8389878;28;20218;-84
2021/12/18 13:00:54;;;;;;;47.13;18.13;;;;;;;;;;8389830;28;20067;-83
2021/12/18 13:05:13;;;;;;;54.25;20.77;;;;;;;;;;8371807;28;20061;-80
2021/12/18 13:09:23;;;;;;;42.60;16.58;;;;;;;;;;8371953;28;20049;-83
2021/12/18 13:13:30;;;;;;;49.15;18.42;;;;;;;;;;8387848;28;20252;-84
2021/12/18 13:17:34;;;;;;;54.05;21.13;;;;;;;;;;8369186;28;20045;-74
2021/12/18 13:21:47;;;;;;;47.70;18.55;;;;;;;;;;8388103;28;20140;-82
2021/12/18 13:26:06;;;;;;;42.92;17.88;;;;;;;;;;8387896;28;20104;-74
2021/12/18 13:30:19;;;;;;;47.42;19.17;;;;;;;;;;8388980;28;20238;-73
2021/12/18 13:34:32;;;;;;;48.90;16.50;;;;;;;;;;8398969;28;20090;-80
2021/12/18 13:38:38;;;;;;;52.13;20.20;;;;;;;;;;8421181;28;20036;-80
2021/12/18 13:42:42;;;;;;;45.60;19.83;;;;;;;;;;8419835;28;20059;-82
2021/12/18 13:46:46;;;;;;;47.78;18.55;;;;;;;;;;8419567;28;20056;-74
2021/12/18 13:50:57;;;;;;;35.22;16.63;;;;;;;;;;8403885;28;20383;-83
2021/12/18 13:55:03;;;;;;;47.10;18.43;;;;;;;;;;8419530;28;20051;-78
2021/12/18 13:59:18;;;;;;;52.15;20.17;;;;;;;;;;8377060;28;20049;-76
2021/12/18 14:03:29;;;;;;;48.53;20.60;;;;;;;;;;8381410;28;20048;-76
2021/12/18 14:07:36;;;;;;;46.15;22.15;;;;;;;;;;8403135;28;20128;-78
2021/12/18 14:11:54;;;;;;;100.72;48.30;;;;;;;;;;8383599;28;20049;-78
2021/12/18 14:16:17;;;;;;;47.08;23.25;;;;;;;;;;8377068;28;20095;-81
2021/12/18 14:20:26;;;;;;;71.03;30.85;;;;;;;;;;8386217;28;20049;-81
2021/12/18 14:24:33;;;;;;;63.55;27.83;;;;;;;;;;8394595;28;20064;-80
2021/12/18 14:28:40;;;;;;;69.88;28.55;;;;;;;;;;8372218;28;20045;-80
2021/12/18 14:32:45;;;;;;;96.50;40.65;;;;;;;;;;8406858;28;20064;-83
2021/12/18 14:37:03;;;;;;;73.20;32.08;;;;;;;;;;8402005;28;20040;-82
2021/12/18 14:41:09;;;;;;;65.50;28.92;;;;;;;;;;8398197;28;20039;-83
2021/12/18 14:45:25;;;;;;;69.30;24.67;;;;;;;;;;8400857;28;20064;-78
2021/12/18 14:49:31;;;;;;;43.53;20.45;;;;;;;;;;8418197;28;20060;-82
2021/12/18 14:53:37;;;;;;;72.70;31.70;;;;;;;;;;8395494;28;20078;-81
2021/12/18 14:57:54;;;;;;;80.38;32.40;;;;;;;;;;8388103;28;20047;-74
2021/12/18 15:02:04;;;;;;;76.45;29.17;;;;;;;;;;8409183;28;20054;-74
2021/12/18 15:06:17;;;;;;;94.55;34.85;;;;;;;;;;8387064;28;20064;-74
2021/12/18 15:10:26;;;;;;;114.15;38.28;;;;;;;;;;8372662;28;20045;-75
2021/12/18 15:14:37;;;;;;;156.25;43.10;;;;;;;;;;8409493;28;20105;-73
2021/12/18 15:18:45;;;;;;;119.47;35.88;;;;;;;;;;8407648;28;20041;-73
2021/12/18 15:22:51;;;;;;;99.53;30.13;;;;;;;;;;8389557;28;20052;-76
2021/12/18 15:27:02;;;;;;;198.88;44.63;;;;;;;;;;8381836;28;20237;-78
2021/12/18 15:31:22;;;;;;;201.25;46.50;;;;;;;;;;8410084;28;20044;-72
2021/12/18 15:35:35;;;;;;;144.85;42.53;;;;;;;;;;8400900;28;20048;-73
2021/12/18 15:39:41;;;;;;;117.30;45.08;;;;;;;;;;8380500;28;20047;-74
2021/12/18 15:43:48;;;;;;;217.65;62.20;;;;;;;;;;8405519;28;20372;-72
2021/12/18 15:47:51;;;;;;;65.97;27.02;;;;;;;;;;8391561;28;20061;-75
2021/12/18 15:52:02;;;;;;;78.93;29.63;;;;;;;;;;8407995;28;20051;-75
2021/12/18 15:56:07;;;;;;;86.32;33.95;;;;;;;;;;8394815;28;20051;-73
2021/12/18 16:00:12;;;;;;;74.95;29.42;;;;;;;;;;8392102;28;20338;-76
2021/12/18 16:04:16;;;;;;;81.65;32.53;;;;;;;;;;8417819;28;20047;-74
2021/12/18 16:08:21;;;;;;;70.95;28.70;;;;;;;;;;8418730;28;20059;-76
2021/12/18 16:12:25;;;;;;;55.47;25.42;;;;;;;;;;8400021;28;20068;-79
2021/12/18 16:16:28;;;;;;;97.20;33.20;;;;;;;;;;8419648;28;20041;-74
2021/12/18 16:20:32;;;;;;;125.28;43.15;;;;;;;;;;8418362;28;20040;-74
2021/12/18 16:24:37;;;;;;;79.28;30.67;;;;;;;;;;8401462;28;20357;-77
2021/12/18 16:28:44;;;;;;;91.55;35.35;;;;;;;;;;8418398;28;20050;-73
2021/12/18 16:32:51;;;;;;;84.25;32.97;;;;;;;;;;8401142;28;20237;-74
2021/12/18 16:36:55;;;;;;;70.20;27.80;;;;;;;;;;8401801;28;20329;-74
2021/12/18 16:41:02;;;;;;;73.00;27.65;;;;;;;;;;8418675;28;20307;-73
2021/12/18 16:45:08;;;;;;;70.65;31.20;;;;;;;;;;8418289;28;20067;-74
2021/12/18 16:49:12;;;;;;;119.35;45.40;;;;;;;;;;8417429;28;20235;-74
2021/12/18 16:53:17;;;;;;;151.73;60.47;;;;;;;;;;8399687;28;20045;-73
2021/12/18 16:57:31;;;;;;;98.53;37.22;;;;;;;;;;8400042;28;20040;-75
2021/12/18 17:01:36;;;;;;;92.90;37.95;;;;;;;;;;8400265;28;20070;-73
2021/12/18 17:05:49;;;;;;;76.68;30.45;;;;;;;;;;8399702;28;20111;-74
2021/12/18 17:09:53;;;;;;;74.57;31.60;;;;;;;;;;8416862;28;20308;-75
2021/12/18 17:13:57;;;;;;;84.90;30.67;;;;;;;;;;8399068;28;20053;-74
2021/12/18 17:18:02;;;;;;;75.90;29.80;;;;;;;;;;8416453;28;20036;-74
2021/12/18 17:22:06;;;;;;;90.65;36.97;;;;;;;;;;8398857;28;20082;-74
2021/12/18 17:26:11;;;;;;;90.43;36.45;;;;;;;;;;8399343;28;20051;-75
2021/12/18 17:30:21;;;;;;;78.93;29.85;;;;;;;;;;8416694;28;20047;-74
2021/12/18 17:34:25;;;;;;;100.03;38.08;;;;;;;;;;8415816;28;20218;-73
2021/12/18 17:38:34;;;;;;;79.65;32.92;;;;;;;;;;8416352;28;20250;-73
2021/12/18 17:42:40;;;;;;;74.80;28.33;;;;;;;;;;8366147;28;20049;-74
2021/12/18 17:46:49;;;;;;;75.13;30.10;;;;;;;;;;8382079;28;20049;-75
2021/12/18 17:50:54;;;;;;;83.00;33.50;;;;;;;;;;8397776;28;20111;-73
2021/12/18 17:55:07;;;;;;;81.53;30.77;;;;;;;;;;8415806;28;20040;-74
2021/12/18 17:59:14;;;;;;;78.03;30.55;;;;;;;;;;8397590;28;20139;-75
2021/12/18 18:03:22;;;;;;;73.10;28.48;;;;;;;;;;8415663;28;20116;-76
2021/12/18 18:07:27;;;;;;;73.13;29.40;;;;;;;;;;8415687;28;20044;-75
2021/12/18 18:11:32;;;;;;;68.53;25.45;;;;;;;;;;8397471;28;20044;-75
2021/12/18 18:15:39;;;;;;;67.72;27.88;;;;;;;;;;8397467;28;20044;-74
2021/12/18 18:19:56;;;;;;;67.20;27.30;;;;;;;;;;8415721;28;20036;-74
2021/12/18 18:24:00;;;;;;;82.75;29.65;;;;;;;;;;8415120;28;20139;-75
2021/12/18 18:28:05;;;;;;;73.88;28.63;;;;;;;;;;8416163;28;20040;-74
2021/12/18 18:32:12;;;;;;;72.45;26.15;;;;;;;;;;8399395;28;20389;-74
2021/12/18 18:36:19;;;;;;;76.97;28.88;;;;;;;;;;8414742;28;20060;-73
2021/12/18 18:40:27;;;;;;;73.05;26.45;;;;;;;;;;8414878;28;20041;-74
2021/12/18 18:44:35;;;;;;;70.13;26.33;;;;;;;;;;8418350;28;20217;-75
2021/12/18 18:48:46;;;;;;;69.43;28.23;;;;;;;;;;8362162;28;20057;-80
2021/12/18 18:52:52;;;;;;;62.90;22.25;;;;;;;;;;8356833;28;20048;-80
2021/12/18 18:56:58;;;;;;;67.80;25.95;;;;;;;;;;8365702;28;20427;-73
2021/12/18 19:01:06;;;;;;;73.07;27.58;;;;;;;;;;8389706;28;20071;-74
2021/12/18 19:05:11;;;;;;;65.95;25.27;;;;;;;;;;8388398;28;20049;-74
2021/12/18 19:09:17;;;;;;;65.18;24.98;;;;;;;;;;8357435;28;20065;-74
2021/12/18 19:13:22;;;;;;;72.60;25.80;;;;;;;;;;8355477;28;20053;-74
2021/12/18 19:17:28;;;;;;;63.15;25.60;;;;;;;;;;8366509;28;20052;-75
2021/12/18 19:21:32;;;;;;;73.25;28.88;;;;;;;;;;8387304;28;20051;-74
2021/12/18 19:25:37;;;;;;;53.35;24.98;;;;;;;;;;8379850;28;20041;-75
2021/12/18 19:29:42;;;;;;;67.30;24.20;;;;;;;;;;8387480;28;20045;-76
2021/12/18 19:33:46;;;;;;;61.88;25.23;;;;;;;;;;8385179;28;20055;-73
2021/12/18 19:37:55;;;;;;;64.10;25.52;;;;;;;;;;8369212;28;20111;-74
2021/12/18 19:42:00;;;;;;;54.47;22.50;;;;;;;;;;8354316;28;20041;-73
2021/12/18 19:46:07;;;;;;;56.20;22.20;;;;;;;;;;8370506;28;20072;-74
2021/12/18 19:50:12;;;;;;;62.13;24.17;;;;;;;;;;8419678;28;20060;-74
2021/12/18 19:54:16;;;;;;;59.13;21.08;;;;;;;;;;8418221;28;20230;-78
2021/12/18 19:58:21;;;;;;;58.92;21.95;;;;;;;;;;8418832;28;20064;-74
2021/12/18 20:02:32;;;;;;;64.63;24.45;;;;;;;;;;8419728;28;20048;-74
2021/12/18 20:06:38;;;;;;;56.53;21.58;;;;;;;;;;8401111;28;20108;-74
2021/12/18 20:10:41;;;;;;;54.10;20.35;;;;;;;;;;8400970;28;20045;-74
2021/12/18 20:14:47;;;;;;;44.30;17.40;;;;;;;;;;8418974;28;20041;-74
2021/12/18 20:18:52;;;;;;;53.30;21.38;;;;;;;;;;8419049;28;20051;-73
2021/12/18 20:22:56;;;;;;;53.65;19.60;;;;;;;;;;8400777;28;20105;-74
2021/12/18 20:27:03;;;;;;;56.20;20.73;;;;;;;;;;8418322;28;20048;-74
2021/12/18 20:31:08;;;;;;;53.53;19.63;;;;;;;;;;8418459;28;20041;-74
2021/12/18 20:35:17;;;;;;;48.90;20.40;;;;;;;;;;8418298;28;20051;-74
2021/12/18 20:39:23;;;;;;;51.88;17.15;;;;;;;;;;8419812;28;20248;-82
2021/12/18 20:43:27;;;;;;;63.40;21.38;;;;;;;;;;8418188;28;20043;-74
2021/12/18 20:47:32;;;;;;;55.17;19.88;;;;;;;;;;8417450;28;20079;-74
2021/12/18 20:51:41;;;;;;;50.08;19.08;;;;;;;;;;8402001;28;20052;-74
2021/12/18 20:55:45;;;;;;;53.10;18.65;;;;;;;;;;8421492;28;20036;-75
2021/12/18 20:59:52;;;;;;;52.88;19.08;;;;;;;;;;8420127;28;20081;-75
2021/12/18 21:03:59;;;;;;;48.92;19.02;;;;;;;;;;8418741;28;20131;-75
2021/12/18 21:08:04;;;;;;;55.15;21.13;;;;;;;;;;8400532;28;20090;-76
2021/12/18 21:12:12;;;;;;;45.00;18.85;;;;;;;;;;8419763;28;20314;-75
2021/12/18 21:16:17;;;;;;;57.67;20.45;;;;;;;;;;8416851;28;20045;-74
2021/12/18 21:20:24;;;;;;;55.55;20.13;;;;;;;;;;8416782;28;20102;-74
2021/12/18 21:24:28;;;;;;;52.75;19.08;;;;;;;;;;8416648;28;20326;-75
2021/12/18 21:28:33;;;;;;;53.92;21.08;;;;;;;;;;8416251;28;20310;-74
2021/12/18 21:32:37;;;;;;;52.97;18.23;;;;;;;;;;8398992;28;20108;-74
2021/12/18 21:36:46;;;;;;;48.63;17.17;;;;;;;;;;8399107;28;20048;-74
2021/12/18 21:40:51;;;;;;;47.65;16.55;;;;;;;;;;8399255;28;20056;-74
2021/12/18 21:44:56;;;;;;;42.15;16.35;;;;;;;;;;8415837;28;20104;-74
2021/12/18 21:49:00;;;;;;;41.00;17.35;;;;;;;;;;8398337;28;20321;-75
2021/12/18 21:53:09;;;;;;;43.00;16.27;;;;;;;;;;8398467;28;20082;-74
2021/12/18 21:57:15;;;;;;;42.50;15.90;;;;;;;;;;8416142;28;20245;-74
2021/12/18 22:01:19;;;;;;;39.10;15.95;;;;;;;;;;8416084;28;20036;-74
2021/12/18 22:05:30;;;;;;;44.38;16.30;;;;;;;;;;8397315;28;20056;-74
2021/12/18 22:09:40;;;;;;;38.88;15.38;;;;;;;;;;8397752;28;20314;-74
2021/12/18 22:13:44;;;;;;;35.25;14.32;;;;;;;;;;8397732;28;20052;-77
2021/12/18 22:17:48;;;;;;;42.95;16.67;;;;;;;;;;8414523;28;20408;-74
2021/12/18 22:21:54;;;;;;;36.63;13.77;;;;;;;;;;8398093;28;20044;-76
2021/12/18 22:26:00;;;;;;;33.17;14.02;;;;;;;;;;8415118;28;20048;-75
2021/12/18 22:30:04;;;;;;;33.38;13.05;;;;;;;;;;8415592;28;20047;-83
2021/12/18 22:34:08;;;;;;;35.38;12.98;;;;;;;;;;8415398;28;20040;-74
2021/12/18 22:38:12;;;;;;;32.85;11.70;;;;;;;;;;8397325;28;20045;-73
2021/12/18 22:42:20;;;;;;;31.27;11.55;;;;;;;;;;8396890;28;20048;-73
2021/12/18 22:46:39;;;;;;;25.00;10.43;;;;;;;;;;8414028;28;20059;-73
2021/12/18 22:50:53;;;;;;;29.13;10.63;;;;;;;;;;8415190;28;20040;-74
2021/12/18 22:54:58;;;;;;;26.00;10.82;;;;;;;;;;8414447;28;20044;-74
2021/12/18 22:59:04;;;;;;;24.42;10.50;;;;;;;;;;8415579;28;20037;-73
2021/12/18 23:03:11;;;;;;;35.80;11.45;;;;;;;;;;8397173;28;20360;-73
2021/12/18 23:07:14;;;;;;;33.00;11.90;;;;;;;;;;8414050;28;20040;-73
2021/12/18 23:11:28;;;;;;;32.97;12.82;;;;;;;;;;8414693;28;20278;-73
2021/12/18 23:15:50;;;;;;;35.05;14.38;;;;;;;;;;8396588;28;20041;-73
2021/12/18 23:20:07;;;;;;;23.23;11.13;;;;;;;;;;8414010;28;20115;-73
2021/12/18 23:24:15;;;;;;;21.73;9.60;;;;;;;;;;8414289;28;20047;-74
2021/12/18 23:28:22;;;;;;;17.30;8.10;;;;;;;;;;8413820;28;20044;-75
2021/12/18 23:32:27;;;;;;;23.65;9.48;;;;;;;;;;8420310;28;20040;-74
2021/12/18 23:36:31;;;;;;;23.05;8.48;;;;;;;;;;8419989;28;20060;-74
2021/12/18 23:40:34;;;;;;;18.92;7.45;;;;;;;;;;8419961;28;20287;-75
2021/12/18 23:49:01;;;;;;;16.67;6.95;;;;;;;;;;8419754;28;20124;-75
2021/12/18 23:53:05;;;;;;;17.23;7.43;;;;;;;;;;8401788;28;20237;-74
2021/12/18 23:57:08;;;;;;;18.38;7.05;;;;;;;;;;8419792;28;20083;-75
